Lincoln Park, Illinois
Current Conditions -  °F | °C
As of 6:53 PM on Friday 19 Dec 2014 (Local Time) from KMDW Reporting Station
Overcast Overcast  
Wind Chill: 34°   Ceiling: 2600
Heat Index: 34°   Visibility: 10mi
Dew Point: 23°   Wind: 0mph
Humidity: 64%   Direction: NA
Pressure: 30.28"   Gusts: NA
Location:  41.9225°N, 87.651°W
Report Text: KMDW 200053Z 00000KT 10SM OVC026 01/M05 A3028 RMK AO2 SLP267 T00111050
Loading
Personal Weather Stations






























Interactive Weather Map New forecast layout! Learn more

10-Day Weather Forecast

Advertisements
Track Severe Weather on mobile